METAR Data
IDs: Format: Raw Decoded Include TAF

Data at: 0134 UTC 25 Mar 2019

KCID 250052Z 06014KT 6SM BR SCT009 OVC015 07/07 A3004 RMK AO2 SLP178 T00720067
KCID 250026Z 05012KT 4SM BR OVC007 08/07 A3004 RMK AO2 T00780067
KCID 242352Z 04012KT 2 1/2SM BR OVC008 08/07 A3002 RMK AO2 RAE32 SLP170 P0000 60000 T00780072 10111 20078 51007
KCID 242341Z 04012KT 2 1/2SM BR OVC008 08/08 A3002 RMK AO2 RAE32 CIG 006V011 P0000 T00780078
KCID 242332Z 04009KT 1 3/4SM BR OVC009 08/08 A3002 RMK AO2 RAE32 CIG 006V011 P0000 T00780078
KCID 242303Z 04010KT 2 1/2SM -RA BR OVC009 08/08 A3001 RMK AO2 CIG 007V012 P0000 T00830078
KCID 242252Z 05011KT 4SM -RA BR OVC011 08/07 A3001 RMK AO2 RAB51 SLP168 P0000 T00830072
KCID 242152Z 05009KT 4SM BR OVC012 09/08 A3000 RMK AO2 SLP165 T00940078
KCID 242052Z 05007KT 4SM BR OVC014 10/08 A3000 RMK AO2 SLP162 T01000078 55004
KCID 242043Z 06007KT 4SM BR OVC014 10/08 A3000 RMK AO2 T01000078
KCID 241952Z 07007KT 5SM HZ BKN015 OVC019 11/08 A2998 RMK AO2 SLP157 T01060078
KCID 241945Z 04007KT 5SM HZ BKN015 OVC020 11/08 A2998 RMK AO2 T01110083
KCID 241852Z 09004KT 4SM BR OVC012 10/08 A2999 RMK AO2 SLP159 T01000083
KCID 241816Z 13003KT 4SM BR OVC010 09/08 A3001 RMK AO2 CIG 008V014 T00940078
KCID 241752Z 13004KT 4SM BR OVC009 09/08 A3001 RMK AO2 CIG 007V012 SLP166 60003 T00940083 10094 20044 58006
KCID 241652Z 11006KT 4SM BR OVC007 08/08 A3002 RMK AO2 SLP170 T00830078
KCID 241552Z 13007KT 4SM BR OVC005 08/08 A3003 RMK AO2 CIG 002V007 SLP173 T00780078
KCID 241547Z 13008KT 2 1/2SM BR OVC005 08/08 A3003 RMK AO2 CIG 002V007
KCID 241538Z 12007KT 2 1/2SM BR BKN003 OVC022 08/08 A3002 RMK AO2 CIG 002V007 T00780078
KCID 241452Z 11006KT 1 1/2SM BR OVC003 06/06 A3002 RMK AO2 SLP172 60003 T00610061 58002
KCID 241433Z 11008KT 1 3/4SM BR OVC003 06/06 A3003 RMK AO2 T00560056
KCID 241352Z 11008KT 2 1/2SM OVC005 06/06 A3003 RMK AO2 RAB03E34 SLP175 P0003 T00560056
KCID 241252Z 09007KT 2 1/2SM OVC008 05/05 A3003 RMK AO2 SLP175 T00500050
KCID 241224Z 10007KT 4SM BKN008 BKN016 OVC027 04/04 A3003 RMK AO2 T00440044
KCID 241152Z 12005KT 4SM FEW009 BKN027 OVC038 04/04 A3003 RMK AO2 RAE42 SLP174 P0002 60005 70005 T00440044 10061 20044 56005
KCID 241135Z 11007KT 4SM -RA SCT008 BKN027 OVC035 04/04 A3003 RMK AO2 P0002 T00440044
KCID 241052Z 10009KT 4SM -RA BR BKN010 OVC015 04/04 A3004 RMK AO2 RAB16 CIG 010V013 SLP175 P0001 T00440039
KCID 240952Z 10007KT 10SM OVC020 05/04 A3005 RMK AO2 RAE40 SLP178 P0001 T00500039
KCID 240902Z AUTO 10006KT 5SM -RA BR BKN023 BKN030 OVC036 05/03 A3006 RMK AO2 P0000 T00500033
KCID 240852Z AUTO 09007KT 9SM -RA SCT025 BKN030 OVC048 05/03 A3006 RMK AO2 RAB08 SLP184 P0001 60001 T00500033 58012
KCID 240752Z AUTO 08006KT 10SM OVC050 05/04 A3008 RMK AO2 RAB14E29 SLP190 P0000 T00500039
KCID 240652Z AUTO 12007KT 10SM BKN055 OVC070 06/03 A3009 RMK AO2 SLP192 T00610028
KCID 240552Z AUTO 13008KT 10SM SCT050 OVC065 06/03 A3010 RMK AO2 RAE30 SLP195 P0000 60000 T00610033 10094 20061 401281039 58007
KCID 240452Z AUTO 16010KT 10SM -RA OVC060 07/02 A3012 RMK AO2 RAB49 SLP202 P0000 T00720017
KCID 240352Z 16009KT 10SM OVC085 08/01 A3013 RMK AO2 SLP205 T00830006
KCID 240252Z 14009KT 10SM OVC120 08/01 A3012 RMK AO2 SLP204 T00830006 56006
KCID 240152Z 13007KT 10SM OVC110 08/01 A3013 RMK AO2 SLP207 T00830006
KCID 240052Z 12008KT 10SM OVC120 09/01 A3013 RMK AO2 SLP209 T00890006
KCID 232352Z 14008KT 10SM OVC120 09/01 A3014 RMK AO2 SLP212 T00940006 10128 20094 56012
KCID 232252Z 15008KT 10SM BKN110 11/01 A3014 RMK AO2 SLP213 T01110006
KCID 232152Z 16009KT 10SM FEW120 12/00 A3016 RMK AO2 SLP220 T01170000
KCID 232052Z 16008KT 10SM CLR 12/M01 A3017 RMK AO2 SLP222 T01171006 56016
KCID 231952Z 15010G16KT 10SM CLR 12/M01 A3018 RMK AO2 SLP226 T01221006
KCID 231852Z 15011KT 10SM CLR 12/M01 A3021 RMK AO2 SLP234 T01221006
KCID 231752Z 15009KT 10SM CLR 11/00 A3022 RMK AO2 SLP240 T01110000 10111 21039 58012
KCID 231652Z 18009KT 10SM CLR 09/01 A3023 RMK AO2 SLP244 T00940006
KCID 231552Z 16011KT 10SM CLR 07/01 A3025 RMK AO2 SLP249 T00720006
KCID 231452Z 14009KT 10SM CLR 05/01 A3025 RMK AO2 SLP251 T00500006 50005
KCID 231352Z 14009KT 10SM CLR 02/M01 A3026 RMK AO2 SLP255 T00171006